Time,TemperatureF,DewpointF,PressureIn,WindDirection,WindDirectionDegrees,WindSpeedMPH,WindSpeedGustMPH,Humidity,HourlyPrecipIn,Conditions,Clouds,dailyrainin,SoftwareType,DateUTC
2013-11-28 00:02:00,26.0,19.0,30.09,NE,46,4.0,14.0,74,0.00,,,0.13,,2013-11-28 05:02:00,
2013-11-28 00:22:00,26.0,19.0,30.11,NNE,26,3.0,13.0,74,0.00,,,0.11,,2013-11-28 05:22:00,
2013-11-28 00:53:00,26.0,19.0,30.12,North,353,4.0,15.0,74,0.00,,,0.10,,2013-11-28 05:53:00,
2013-11-28 01:12:00,26.0,19.0,30.11,ENE,66,6.0,20.0,74,0.00,,,0.09,,2013-11-28 06:12:00,
2013-11-28 01:22:00,26.0,19.0,30.11,ENE,66,6.0,20.0,74,0.00,,,0.09,,2013-11-28 06:22:00,
2013-11-28 01:30:00,25.0,19.0,30.11,ENE,61,3.0,9.0,76,0.00,,,0.08,,2013-11-28 06:30:00,
2013-11-28 01:52:00,25.0,19.0,30.11,ENE,61,3.0,9.0,76,0.00,,,0.08,,2013-11-28 06:52:00,
2013-11-28 02:01:00,25.0,19.0,30.11,ENE,61,3.0,9.0,76,0.00,,,0.08,,2013-11-28 07:01:00,
2013-11-28 02:11:00,25.0,19.0,30.11,ENE,61,3.0,9.0,76,0.00,,,0.08,,2013-11-28 07:11:00,
2013-11-28 02:22:00,25.0,19.0,30.11,ENE,61,3.0,9.0,76,0.00,,,0.08,,2013-11-28 07:22:00,
2013-11-28 02:30:00,25.0,19.0,30.16,NNE,30,3.0,10.0,77,0.00,,,0.08,,2013-11-28 07:30:00,
2013-11-28 02:52:00,25.0,19.0,30.16,NNE,30,3.0,10.0,77,0.00,,,0.08,,2013-11-28 07:52:00,
2013-11-28 03:02:00,25.0,19.0,30.16,NNE,30,3.0,10.0,77,0.00,,,0.08,,2013-11-28 08:02:00,
2013-11-28 03:11:00,25.0,19.0,30.16,NNE,30,3.0,10.0,77,0.00,,,0.08,,2013-11-28 08:11:00,
2013-11-28 03:22:00,25.0,19.0,30.16,NNE,30,3.0,10.0,77,0.00,,,0.08,,2013-11-28 08:22:00,
2013-11-28 03:53:00,25.0,19.0,30.17,ENE,61,5.0,9.0,76,0.00,,,0.08,,2013-11-28 08:53:00,
2013-11-28 04:11:00,25.0,19.0,30.18,NE,53,3.0,10.0,77,0.00,,,0.07,,2013-11-28 09:11:00,
2013-11-28 04:21:00,25.0,19.0,30.18,NE,53,3.0,10.0,77,0.00,,,0.07,,2013-11-28 09:21:00,
2013-11-28 04:43:00,25.0,19.0,30.19,NE,45,6.0,10.0,77,0.00,,,0.05,,2013-11-28 09:43:00,
2013-11-28 04:53:00,25.0,19.0,30.19,NE,45,6.0,10.0,77,0.00,,,0.05,,2013-11-28 09:53:00,
2013-11-28 05:03:00,25.0,19.0,30.19,NE,45,6.0,10.0,77,0.00,,,0.05,,2013-11-28 10:03:00,
2013-11-28 05:12:00,25.0,19.0,30.19,NE,45,6.0,10.0,77,0.00,,,0.05,,2013-11-28 10:12:00,
2013-11-28 05:53:00,24.0,19.0,30.22,ENE,61,7.0,14.0,80,0.00,,,0.05,,2013-11-28 10:53:00,
2013-11-28 06:22:00,24.0,19.0,30.23,NNE,32,4.0,10.0,81,0.00,,,0.05,,2013-11-28 11:22:00,
2013-11-28 06:52:00,24.0,19.0,30.25,ENE,76,2.0,12.0,80,0.00,,,0.05,,2013-11-28 11:52:00,
2013-11-28 07:22:00,24.0,19.0,30.27,WNW,295,1.0,7.0,81,0.00,,,0.05,,2013-11-28 12:22:00,
2013-11-28 07:42:00,24.0,19.0,30.28,NNE,28,3.0,7.0,80,0.00,,,0.05,,2013-11-28 12:42:00,
2013-11-28 07:52:00,24.0,19.0,30.28,NNE,28,3.0,7.0,80,0.00,,,0.05,,2013-11-28 12:52:00,
2013-11-28 08:11:00,24.0,19.0,30.28,ENE,57,7.0,13.0,80,0.00,,,0.04,,2013-11-28 13:11:00,
2013-11-28 08:22:00,24.0,19.0,30.28,ENE,57,7.0,13.0,80,0.00,,,0.04,,2013-11-28 13:22:00,
2013-11-28 08:32:00,24.0,19.0,30.28,ENE,57,7.0,13.0,80,0.00,,,0.04,,2013-11-28 13:32:00,
2013-11-28 09:22:00,29.0,22.0,30.32,ENE,72,6.0,13.0,74,0.00,,,0.04,,2013-11-28 14:22:00,
2013-11-28 09:52:00,31.0,22.0,30.34,ENE,64,4.0,14.0,70,0.00,,,0.03,,2013-11-28 14:52:00,
2013-11-28 10:44:00,34.0,23.0,30.34,NE,34,6.0,14.0,65,0.00,,,0.02,,2013-11-28 15:44:00,
2013-11-28 10:54:00,34.0,23.0,30.34,NE,34,6.0,14.0,65,0.00,,,0.02,,2013-11-28 15:54:00,
2013-11-28 16:53:00,42.0,24.0,30.33,SW,234,0.0,1.0,49,0.00,,,0.00,,2013-11-28 21:53:00,
2013-11-28 17:03:00,42.0,24.0,30.33,SW,234,0.0,1.0,49,0.00,,,0.00,,2013-11-28 22:03:00,
2013-11-28 18:52:00,39.0,24.0,30.35,NE,37,0.0,0.0,54,0.00,,,0.00,,2013-11-28 23:52:00,
2013-11-28 19:02:00,39.0,24.0,30.35,NE,37,0.0,0.0,54,0.00,,,0.00,,2013-11-29 00:02:00,
2013-11-28 19:21:00,36.0,23.0,30.36,South,178,4.0,6.0,59,0.00,,,0.00,,2013-11-29 00:21:00,